Time;durP1;ratioP1;P1;durP2;ratioP2;P2;SDS_P1;SDS_P2;PMS_P1;PMS_P2;Temp;Humidity;BMP_temperature;BMP_pressure;BME280_temperature;BME280_humidity;BME280_pressure;Samples;Min_cycle;Max_cycle;Signal;HPM_P1;HPM_P2
2022/03/24 00:02:17;;;;;;;28.77;19.70;;;7.80;54.10;;;;;;5014835;28;20621;-63
2022/03/24 00:04:43;;;;;;;31.60;20.30;;;7.80;54.10;;;;;;5015473;28;20193;-64
2022/03/24 00:07:08;;;;;;;32.50;19.80;;;7.90;54.30;;;;;;5013901;28;20261;-64
2022/03/24 00:09:34;;;;;;;30.57;20.60;;;7.80;54.50;;;;;;5015987;28;20247;-64
2022/03/24 00:11:59;;;;;;;31.83;18.87;;;7.80;55.00;;;;;;5016836;28;20209;-64
2022/03/24 00:14:25;;;;;;;32.90;18.90;;;7.80;55.40;;;;;;5020594;28;20264;-64
2022/03/24 00:16:51;;;;;;;31.07;20.17;;;7.70;55.20;;;;;;5011027;28;20239;-64
2022/03/24 00:19:17;;;;;;;30.33;19.47;;;7.50;55.60;;;;;;5018211;28;20197;-66
2022/03/24 00:21:43;;;;;;;32.00;20.73;;;7.20;56.10;;;;;;5014348;28;20208;-69
2022/03/24 00:24:09;;;;;;;33.80;19.63;;;7.00;56.80;;;;;;5017907;28;20192;-66
2022/03/24 00:26:35;;;;;;;30.13;19.93;;;6.90;56.90;;;;;;5013044;28;20290;-69
2022/03/24 00:29:02;;;;;;;27.07;19.97;;;7.00;56.70;;;;;;5016943;28;20200;-68
2022/03/24 00:31:28;;;;;;;34.30;20.97;;;7.10;56.50;;;;;;5015332;28;20885;-67
2022/03/24 00:33:53;;;;;;;30.87;21.23;;;7.10;56.60;;;;;;5016467;28;20288;-66
2022/03/24 00:36:20;;;;;;;40.10;22.80;;;6.90;57.20;;;;;;5016017;28;20243;-66
2022/03/24 00:38:46;;;;;;;42.10;22.23;;;6.60;57.70;;;;;;5017986;28;20200;-67
2022/03/24 00:41:12;;;;;;;33.57;22.07;;;6.60;58.30;;;;;;5016669;28;20197;-66
2022/03/24 00:43:39;;;;;;;36.23;22.50;;;6.40;58.70;;;;;;5018358;28;20184;-70
2022/03/24 00:46:05;;;;;;;29.93;21.53;;;6.20;59.40;;;;;;5017787;28;20216;-66
2022/03/24 00:48:31;;;;;;;35.00;23.37;;;6.00;59.90;;;;;;5017735;28;20280;-67
2022/03/24 00:50:56;;;;;;;36.17;22.83;;;5.90;60.50;;;;;;5015849;28;20825;-67
2022/03/24 00:53:23;;;;;;;33.27;21.93;;;6.20;60.00;;;;;;5017296;28;20601;-70
2022/03/24 00:55:49;;;;;;;35.37;21.77;;;6.40;59.70;;;;;;5013626;28;20196;-70
2022/03/24 00:58:15;;;;;;;34.27;20.83;;;6.50;59.40;;;;;;5016808;28;20605;-69
2022/03/24 01:00:42;;;;;;;33.30;21.07;;;6.50;59.20;;;;;;5013874;28;20295;-66
2022/03/24 01:03:09;;;;;;;36.00;20.77;;;6.60;59.50;;;;;;5017363;28;20725;-69
2022/03/24 01:05:37;;;;;;;32.67;21.37;;;6.70;59.30;;;;;;5014257;28;20207;-67
2022/03/24 01:08:05;;;;;;;32.63;21.77;;;6.70;59.10;;;;;;5014524;28;20195;-67
2022/03/24 01:10:30;;;;;;;34.47;20.97;;;6.80;59.20;;;;;;5015340;28;20219;-67
2022/03/24 01:12:59;;;;;;;32.03;21.80;;;6.70;59.20;;;;;;5015333;28;20250;-69
2022/03/24 01:15:26;;;;;;;30.03;19.10;;;6.80;59.50;;;;;;5016219;28;20921;-67
2022/03/24 01:17:52;;;;;;;35.13;20.40;;;6.80;59.40;;;;;;5013416;28;20186;-66
2022/03/24 01:20:17;;;;;;;32.13;22.03;;;6.80;59.70;;;;;;5015265;28;20199;-66
2022/03/24 01:22:43;;;;;;;29.80;20.97;;;6.70;60.00;;;;;;5008904;28;20192;-67
2022/03/24 01:25:09;;;;;;;37.80;21.70;;;6.70;60.10;;;;;;5010382;28;20261;-68
2022/03/24 01:27:38;;;;;;;40.00;22.40;;;6.70;60.00;;;;;;5024899;28;20654;-66
2022/03/24 01:30:05;;;;;;;41.00;23.30;;;6.70;60.40;;;;;;5013195;28;20227;-69
2022/03/24 01:32:30;;;;;;;33.10;21.53;;;6.60;60.80;;;;;;5013261;28;20183;-69
2022/03/24 01:34:56;;;;;;;32.23;21.60;;;6.60;60.70;;;;;;5017866;28;20211;-66
2022/03/24 01:37:23;;;;;;;36.50;20.70;;;6.50;60.70;;;;;;5017784;28;20184;-69
2022/03/24 01:39:50;;;;;;;33.07;20.93;;;6.50;61.00;;;;;;5019522;28;20196;-68
2022/03/24 01:42:18;;;;;;;32.33;20.93;;;6.40;61.30;;;;;;5013635;28;20200;-66
2022/03/24 01:44:48;;;;;;;32.67;20.93;;;6.40;61.40;;;;;;5016280;28;20195;-65
2022/03/24 01:47:14;;;;;;;33.30;20.50;;;6.40;61.60;;;;;;5014667;28;20191;-69
2022/03/24 01:49:43;;;;;;;38.97;23.07;;;6.30;61.50;;;;;;4991786;28;20227;-70
2022/03/24 01:52:11;;;;;;;34.23;21.23;;;6.30;61.60;;;;;;5016502;28;20267;-69
2022/03/24 01:54:40;;;;;;;33.30;23.03;;;6.20;61.60;;;;;;5019138;28;20188;-68
2022/03/24 01:57:09;;;;;;;31.20;21.73;;;6.10;61.70;;;;;;5025281;28;20183;-67
2022/03/24 01:59:37;;;;;;;36.67;22.33;;;6.10;61.70;;;;;;5011875;28;20250;-67
2022/03/24 02:02:03;;;;;;;44.20;25.17;;;6.00;62.30;;;;;;5011006;28;20237;-67
2022/03/24 02:04:30;;;;;;;36.47;22.47;;;6.00;62.70;;;;;;5015106;28;20654;-67
2022/03/24 02:06:56;;;;;;;31.53;21.00;;;6.00;62.90;;;;;;5003330;28;20218;-68
2022/03/24 02:09:22;;;;;;;35.63;20.93;;;5.90;62.90;;;;;;5017631;28;20207;-67
2022/03/24 02:11:48;;;;;;;35.00;22.70;;;6.00;63.10;;;;;;5011716;28;20314;-68
2022/03/24 02:14:14;;;;;;;35.10;22.63;;;6.00;62.90;;;;;;4990570;28;20239;-69
2022/03/24 02:16:41;;;;;;;32.53;20.27;;;6.00;63.10;;;;;;5013420;28;20282;-73
2022/03/24 02:19:21;;;;;;;32.23;21.20;;;6.00;63.10;;;;;;5012572;28;20666;-73
2022/03/24 02:21:48;;;;;;;31.70;20.53;;;6.00;63.20;;;;;;5009781;28;20222;-68
2022/03/24 02:24:15;;;;;;;31.67;21.37;;;5.90;63.40;;;;;;5019916;28;20188;-69
2022/03/24 02:26:43;;;;;;;35.80;21.93;;;6.00;63.70;;;;;;5004947;28;20601;-67
2022/03/24 02:29:10;;;;;;;31.37;20.50;;;5.90;63.90;;;;;;5012677;28;20279;-66
2022/03/24 02:31:38;;;;;;;38.53;23.10;;;5.90;64.30;;;;;;5009692;28;20210;-72
2022/03/24 02:36:49;;;;;;;33.07;21.40;;;5.80;64.90;;;;;;5011460;28;20935;-73
2022/03/24 02:39:14;;;;;;;35.40;21.63;;;5.70;65.10;;;;;;5016197;28;20211;-72
2022/03/24 02:41:48;;;;;;;29.20;19.33;;;5.70;65.30;;;;;;5009397;28;20279;-70
2022/03/24 02:44:17;;;;;;;37.97;22.10;;;5.70;65.70;;;;;;5015876;28;20199;-69
2022/03/24 02:46:45;;;;;;;35.17;21.53;;;5.70;66.40;;;;;;5014206;28;20198;-70
2022/03/24 02:49:10;;;;;;;34.23;21.30;;;5.60;66.50;;;;;;5024096;28;20729;-70
2022/03/24 02:51:36;;;;;;;32.50;21.00;;;5.50;66.20;;;;;;5013009;28;20286;-68
2022/03/24 02:54:03;;;;;;;35.83;22.27;;;5.50;67.00;;;;;;5021634;28;20193;-70
2022/03/24 02:56:30;;;;;;;31.90;19.07;;;5.40;67.20;;;;;;5009372;28;20200;-68
2022/03/24 02:58:56;;;;;;;30.70;21.37;;;5.40;68.00;;;;;;5017282;28;20720;-68
2022/03/24 03:01:25;;;;;;;34.40;21.93;;;5.30;68.20;;;;;;5011469;28;20270;-68
2022/03/24 03:03:52;;;;;;;32.87;22.40;;;5.30;68.20;;;;;;5024335;28;20192;-68
2022/03/24 03:06:18;;;;;;;32.20;19.87;;;5.30;68.30;;;;;;5012186;28;20334;-68
2022/03/24 03:08:44;;;;;;;42.33;22.23;;;5.30;68.40;;;;;;5023075;28;20689;-68
2022/03/24 03:11:09;;;;;;;31.33;19.43;;;5.20;68.60;;;;;;5006496;28;20215;-68
2022/03/24 03:13:35;;;;;;;30.53;19.90;;;5.20;68.80;;;;;;5023507;28;20184;-69
2022/03/24 03:16:00;;;;;;;31.77;21.17;;;5.20;69.30;;;;;;5009275;28;20205;-68
2022/03/24 03:18:26;;;;;;;40.57;21.23;;;5.20;69.60;;;;;;5018594;28;20187;-68
2022/03/24 03:20:51;;;;;;;33.87;21.03;;;5.10;70.00;;;;;;5014784;28;20215;-69
2022/03/24 03:23:18;;;;;;;35.03;22.27;;;5.10;70.50;;;;;;5019949;28;20296;-69
2022/03/24 03:25:43;;;;;;;30.97;19.63;;;5.00;70.70;;;;;;5016395;28;20235;-68
2022/03/24 03:28:09;;;;;;;32.27;20.73;;;5.00;70.90;;;;;;5022689;28;20256;-69
2022/03/24 03:30:34;;;;;;;29.63;20.20;;;4.90;71.20;;;;;;5015671;28;20694;-69
2022/03/24 03:33:00;;;;;;;31.50;20.07;;;4.90;71.80;;;;;;5007735;28;20196;-68
2022/03/24 03:35:27;;;;;;;30.37;19.97;;;4.90;72.70;;;;;;5012831;28;20560;-69
2022/03/24 03:37:54;;;;;;;35.43;20.67;;;4.80;72.90;;;;;;4987399;28;21024;-69
2022/03/24 03:40:19;;;;;;;35.87;22.67;;;4.80;74.00;;;;;;5018791;28;20230;-68
2022/03/24 03:42:46;;;;;;;31.80;20.70;;;4.70;73.90;;;;;;5013344;28;20326;-68
2022/03/24 03:45:12;;;;;;;33.50;21.07;;;4.70;73.90;;;;;;5010636;28;20188;-67
2022/03/24 03:47:37;;;;;;;29.20;20.27;;;4.70;74.50;;;;;;5009954;28;20215;-68
2022/03/24 03:50:03;;;;;;;31.03;19.80;;;4.70;75.00;;;;;;5019331;28;20839;-68
2022/03/24 03:52:29;;;;;;;30.90;20.57;;;4.70;75.60;;;;;;5016068;28;20319;-68
2022/03/24 03:54:54;;;;;;;36.23;22.10;;;4.70;75.90;;;;;;5016164;28;20180;-69
2022/03/24 03:57:20;;;;;;;35.80;21.03;;;4.60;76.10;;;;;;5015732;28;20696;-69
2022/03/24 03:59:45;;;;;;;37.30;22.60;;;4.60;76.70;;;;;;5017962;28;20198;-68
2022/03/24 04:02:11;;;;;;;34.97;21.03;;;4.60;77.60;;;;;;5016062;28;20203;-69
2022/03/24 04:04:37;;;;;;;31.73;22.27;;;4.60;78.30;;;;;;5014654;28;20199;-70
2022/03/24 04:07:03;;;;;;;35.53;22.47;;;4.50;78.70;;;;;;5010500;28;20207;-69
2022/03/24 04:09:28;;;;;;;32.97;20.53;;;4.50;79.50;;;;;;5019957;28;20924;-69
2022/03/24 04:11:54;;;;;;;37.83;22.67;;;4.40;80.30;;;;;;5004789;28;20197;-68
2022/03/24 04:14:20;;;;;;;37.83;23.30;;;4.40;80.60;;;;;;5018559;28;20198;-69
2022/03/24 04:16:46;;;;;;;39.47;23.40;;;4.30;80.70;;;;;;5020155;28;20188;-69
2022/03/24 04:19:12;;;;;;;32.57;22.83;;;4.30;81.60;;;;;;5016875;28;20550;-69
2022/03/24 04:21:38;;;;;;;30.67;21.23;;;4.30;82.10;;;;;;5019029;28;20671;-70
2022/03/24 04:24:04;;;;;;;32.13;20.33;;;4.30;82.40;;;;;;5010009;28;20658;-71
2022/03/24 04:26:30;;;;;;;34.07;21.73;;;4.30;82.50;;;;;;5012800;28;20231;-70
2022/03/24 04:28:55;;;;;;;42.20;22.83;;;4.30;82.60;;;;;;5014193;28;20286;-71
2022/03/24 04:31:22;;;;;;;33.57;22.40;;;4.40;83.00;;;;;;5018222;28;20207;-69
2022/03/24 04:33:48;;;;;;;32.97;21.97;;;4.30;83.10;;;;;;5004642;28;20208;-66
2022/03/24 04:36:14;;;;;;;28.63;21.50;;;4.30;83.80;;;;;;5012937;28;20191;-66
2022/03/24 04:38:39;;;;;;;35.90;22.03;;;4.30;84.30;;;;;;5006978;28;20302;-64
2022/03/24 04:41:05;;;;;;;36.63;22.90;;;4.30;85.00;;;;;;5015699;28;20773;-65
2022/03/24 04:43:31;;;;;;;30.40;19.43;;;4.30;85.40;;;;;;5021195;28;20213;-66
2022/03/24 04:45:57;;;;;;;34.70;22.77;;;4.30;85.70;;;;;;5022817;28;20197;-68
2022/03/24 04:48:23;;;;;;;37.80;23.27;;;4.20;85.80;;;;;;5013718;28;20203;-68
2022/03/24 04:50:48;;;;;;;33.90;21.97;;;4.20;86.20;;;;;;5017594;28;20207;-68
2022/03/24 04:53:15;;;;;;;36.53;24.10;;;4.20;86.60;;;;;;5007574;28;20200;-68
2022/03/24 04:55:45;;;;;;;36.77;22.70;;;4.20;87.90;;;;;;5021620;28;20195;-68
2022/03/24 04:58:12;;;;;;;32.43;20.10;;;4.20;87.40;;;;;;5005714;28;20278;-68
2022/03/24 05:00:37;;;;;;;30.07;21.57;;;4.10;87.80;;;;;;5011857;28;20203;-69
2022/03/24 05:03:04;;;;;;;33.07;21.90;;;4.20;88.20;;;;;;5005474;28;20214;-69
2022/03/24 05:05:30;;;;;;;35.63;21.33;;;4.10;89.40;;;;;;5010816;28;20195;-68
2022/03/24 05:07:55;;;;;;;35.00;23.57;;;4.10;89.20;;;;;;5004221;28;20219;-68
2022/03/24 05:10:21;;;;;;;38.10;21.83;;;4.00;89.90;;;;;;5008739;28;20208;-70
2022/03/24 05:12:46;;;;;;;42.23;24.33;;;4.00;90.60;;;;;;5022460;28;20282;-69
2022/03/24 05:15:13;;;;;;;38.30;24.93;;;3.90;91.10;;;;;;5020693;28;20721;-70
2022/03/24 05:17:40;;;;;;;39.13;25.20;;;3.90;91.60;;;;;;5014683;28;20794;-64
2022/03/24 05:20:07;;;;;;;34.20;24.67;;;3.80;91.90;;;;;;5022122;28;20214;-70
2022/03/24 05:22:33;;;;;;;31.07;22.20;;;3.70;92.50;;;;;;5003639;28;20207;-69
2022/03/24 05:24:59;;;;;;;38.77;23.90;;;3.70;93.10;;;;;;5014604;28;20239;-69
2022/03/24 05:27:25;;;;;;;38.73;23.67;;;3.70;93.90;;;;;;5013052;28;20314;-70
2022/03/24 05:29:51;;;;;;;40.47;24.20;;;3.60;94.40;;;;;;5017202;28;20353;-70
2022/03/24 05:32:16;;;;;;;38.67;24.47;;;3.60;94.80;;;;;;5010701;28;20616;-70
2022/03/24 05:34:43;;;;;;;35.07;24.83;;;3.60;95.20;;;;;;5012988;28;20184;-70
2022/03/24 05:37:09;;;;;;;43.50;25.37;;;3.60;95.60;;;;;;5013990;28;20214;-68
2022/03/24 05:39:35;;;;;;;36.43;22.63;;;3.70;95.90;;;;;;5024932;28;20646;-69
2022/03/24 05:42:02;;;;;;;40.57;24.37;;;3.70;96.10;;;;;;5014904;28;20202;-70
2022/03/24 05:44:30;;;;;;;41.17;24.30;;;3.70;96.30;;;;;;5010328;28;20203;-68
2022/03/24 05:46:56;;;;;;;39.43;26.97;;;3.70;96.20;;;;;;5018624;28;20262;-68
2022/03/24 05:49:22;;;;;;;42.17;27.33;;;3.70;96.70;;;;;;5017363;28;20187;-68
2022/03/24 05:51:49;;;;;;;47.27;26.37;;;3.70;96.90;;;;;;5018645;28;20713;-68
2022/03/24 05:54:17;;;;;;;45.30;26.40;;;3.80;97.10;;;;;;5013284;28;20214;-68
2022/03/24 05:56:44;;;;;;;36.00;23.93;;;3.80;97.30;;;;;;5011988;28;20203;-69
2022/03/24 05:59:10;;;;;;;38.60;23.57;;;3.90;97.90;;;;;;5009903;28;20264;-70
2022/03/24 06:01:37;;;;;;;38.97;24.87;;;3.90;97.70;;;;;;5011994;28;20684;-71
2022/03/24 06:04:03;;;;;;;41.27;26.53;;;3.90;97.50;;;;;;5021589;28;20815;-70
2022/03/24 06:06:32;;;;;;;43.10;26.43;;;3.90;98.30;;;;;;5010021;28;20593;-68
2022/03/24 06:08:58;;;;;;;40.30;25.83;;;4.00;98.50;;;;;;5018991;28;20582;-70
2022/03/24 06:11:24;;;;;;;40.30;26.80;;;3.90;98.30;;;;;;5012722;28;20219;-70
2022/03/24 06:13:50;;;;;;;39.20;24.03;;;3.90;99.10;;;;;;5016930;28;20643;-69
2022/03/24 06:16:15;;;;;;;40.60;26.80;;;4.00;99.20;;;;;;5024037;28;20183;-68
2022/03/24 06:18:41;;;;;;;36.90;26.13;;;4.00;99.40;;;;;;5016696;28;20732;-68
2022/03/24 06:21:08;;;;;;;48.87;27.13;;;4.10;99.40;;;;;;5011042;28;20219;-70
2022/03/24 06:23:34;;;;;;;48.60;28.17;;;4.10;99.60;;;;;;5019817;28;20277;-69
2022/03/24 06:26:00;;;;;;;41.60;27.40;;;4.10;99.70;;;;;;5009054;28;20239;-68
2022/03/24 06:28:26;;;;;;;39.60;25.33;;;4.20;99.90;;;;;;5007087;28;20200;-68
2022/03/24 06:30:52;;;;;;;46.33;28.07;;;4.20;99.90;;;;;;5012463;28;20254;-67
2022/03/24 06:33:18;;;;;;;45.97;27.63;;;4.20;99.90;;;;;;5007451;28;20291;-66
2022/03/24 06:35:45;;;;;;;54.03;29.80;;;4.30;99.90;;;;;;5015199;28;20250;-66
2022/03/24 06:38:11;;;;;;;45.07;27.47;;;4.30;99.90;;;;;;5009313;28;20215;-67
2022/03/24 06:40:38;;;;;;;47.87;28.17;;;4.30;99.90;;;;;;5015543;28;20191;-65
2022/03/24 06:43:04;;;;;;;43.13;29.13;;;4.40;99.90;;;;;;5008347;28;21037;-66
2022/03/24 06:45:30;;;;;;;45.80;29.33;;;4.40;99.90;;;;;;5013576;28;20215;-66
2022/03/24 06:47:56;;;;;;;46.33;28.57;;;4.50;99.90;;;;;;5019504;28;20219;-68
2022/03/24 06:50:22;;;;;;;44.93;28.97;;;4.60;99.90;;;;;;5018084;28;20219;-66
2022/03/24 06:52:47;;;;;;;47.07;27.73;;;4.70;99.90;;;;;;5017911;28;20200;-68
2022/03/24 06:55:13;;;;;;;50.07;29.77;;;4.70;99.90;;;;;;5012659;28;20215;-66
2022/03/24 06:57:39;;;;;;;45.63;30.33;;;4.80;99.90;;;;;;5014463;28;20197;-66
2022/03/24 07:00:06;;;;;;;44.50;28.37;;;4.90;99.90;;;;;;5008095;28;20215;-66
2022/03/24 07:02:32;;;;;;;49.73;28.13;;;5.00;99.90;;;;;;5017306;28;20194;-66
2022/03/24 07:04:57;;;;;;;47.43;29.83;;;5.10;99.90;;;;;;5015080;28;20579;-66
2022/03/24 07:07:23;;;;;;;48.17;29.63;;;5.20;99.90;;;;;;5013200;28;20195;-67
2022/03/24 07:09:49;;;;;;;55.60;31.63;;;5.30;99.60;;;;;;5017685;28;20227;-66
2022/03/24 07:12:19;;;;;;;51.07;30.70;;;5.40;99.20;;;;;;5018456;28;20196;-66
2022/03/24 07:14:45;;;;;;;50.43;29.53;;;5.50;99.00;;;;;;5017206;28;20226;-68
2022/03/24 07:17:10;;;;;;;51.33;29.93;;;5.60;99.40;;;;;;5024127;28;20187;-67
2022/03/24 07:19:36;;;;;;;48.27;29.40;;;5.60;98.80;;;;;;5009831;28;20223;-66
2022/03/24 07:22:02;;;;;;;44.97;29.47;;;5.70;99.10;;;;;;5023872;28;20237;-68
2022/03/24 07:24:27;;;;;;;43.47;30.10;;;5.80;99.00;;;;;;5017715;28;20210;-68
2022/03/24 07:26:53;;;;;;;44.30;28.13;;;5.90;98.80;;;;;;5015092;28;20235;-67
2022/03/24 07:29:18;;;;;;;47.33;29.83;;;6.00;98.30;;;;;;5016444;28;20204;-64
2022/03/24 07:31:44;;;;;;;46.10;29.80;;;6.10;98.30;;;;;;5018203;28;20196;-65
2022/03/24 07:34:10;;;;;;;45.83;29.17;;;6.20;98.20;;;;;;5006110;28;20295;-65
2022/03/24 07:36:35;;;;;;;45.20;27.50;;;6.30;97.80;;;;;;5021074;28;20524;-65
2022/03/24 07:39:01;;;;;;;45.90;29.37;;;6.40;97.10;;;;;;5010583;28;20188;-67
2022/03/24 07:41:27;;;;;;;50.27;29.90;;;6.50;97.10;;;;;;5007651;28;20279;-68
2022/03/24 07:43:52;;;;;;;46.13;28.50;;;6.50;96.80;;;;;;5012366;28;20207;-68
2022/03/24 07:46:18;;;;;;;47.70;29.27;;;6.60;96.70;;;;;;5015064;28;20788;-66
2022/03/24 07:48:48;;;;;;;54.33;32.60;;;6.80;96.10;;;;;;5010434;28;20249;-67
2022/03/24 07:51:15;;;;;;;51.37;31.77;;;7.00;95.50;;;;;;5014039;28;20262;-68
2022/03/24 07:53:57;;;;;;;46.83;30.67;;;6.90;95.60;;;;;;5017084;28;20685;-68
2022/03/24 07:56:27;;;;;;;46.33;29.83;;;7.00;95.50;;;;;;5015552;28;20219;-69
2022/03/24 07:58:56;;;;;;;45.70;29.47;;;7.10;95.60;;;;;;5016698;28;20195;-67
2022/03/24 08:01:31;;;;;;;46.73;30.90;;;7.20;95.40;;;;;;5015008;28;20185;-68
2022/03/24 08:03:58;;;;;;;40.13;28.53;;;7.40;94.60;;;;;;5013955;28;20661;-68
2022/03/24 08:06:24;;;;;;;44.10;28.03;;;7.50;94.20;;;;;;5014278;28;20825;-69
2022/03/24 08:08:50;;;;;;;46.83;29.50;;;7.50;94.50;;;;;;5013147;28;20277;-68
2022/03/24 08:11:16;;;;;;;48.97;29.80;;;7.50;94.10;;;;;;5017305;28;20746;-69
2022/03/24 08:13:42;;;;;;;44.37;29.20;;;7.60;94.30;;;;;;5017045;28;20285;-68
2022/03/24 08:16:07;;;;;;;41.73;27.63;;;7.80;93.60;;;;;;5014212;28;20703;-69
2022/03/24 08:18:33;;;;;;;43.77;29.33;;;7.80;92.70;;;;;;5021461;28;20604;-69
2022/03/24 08:20:59;;;;;;;49.10;28.67;;;7.80;92.90;;;;;;5011474;28;20204;-69
2022/03/24 08:23:25;;;;;;;42.70;29.27;;;7.90;93.10;;;;;;5022394;28;20422;-68
2022/03/24 08:25:51;;;;;;;44.47;28.23;;;8.10;92.60;;;;;;5012835;28;20258;-68
2022/03/24 08:28:17;;;;;;;45.27;27.53;;;8.20;92.30;;;;;;5017841;28;20237;-68
2022/03/24 08:30:44;;;;;;;53.47;30.40;;;8.30;92.00;;;;;;5011139;28;20216;-68
2022/03/24 08:33:10;;;;;;;50.27;28.90;;;8.40;91.60;;;;;;5012749;28;20207;-68
2022/03/24 08:35:36;;;;;;;49.13;29.03;;;8.40;91.60;;;;;;5006534;28;20212;-68
2022/03/24 08:38:02;;;;;;;45.03;27.00;;;8.60;91.30;;;;;;5006220;28;20196;-69
2022/03/24 08:40:28;;;;;;;42.37;26.93;;;8.70;91.70;;;;;;5014672;28;20662;-69
2022/03/24 08:42:54;;;;;;;44.57;27.97;;;8.80;91.30;;;;;;5014475;28;20201;-69
2022/03/24 08:45:20;;;;;;;42.50;27.47;;;8.90;90.80;;;;;;5008328;28;20293;-68
2022/03/24 08:47:46;;;;;;;44.47;28.43;;;9.10;90.20;;;;;;5017905;28;20656;-68
2022/03/24 08:50:12;;;;;;;41.77;27.57;;;8.90;90.20;;;;;;5011249;28;20213;-69
2022/03/24 08:52:38;;;;;;;41.67;26.57;;;8.90;90.50;;;;;;5013404;28;20237;-69
2022/03/24 08:55:06;;;;;;;41.13;26.63;;;9.10;90.10;;;;;;5004438;28;20218;-69
2022/03/24 08:57:32;;;;;;;38.17;25.67;;;9.40;88.10;;;;;;5007055;28;20569;-69
2022/03/24 09:00:00;;;;;;;40.57;26.30;;;9.40;87.10;;;;;;5004579;28;20213;-68
2022/03/24 09:02:26;;;;;;;39.93;25.87;;;9.50;87.30;;;;;;5008308;28;20660;-69
2022/03/24 09:04:52;;;;;;;45.17;28.30;;;9.50;86.50;;;;;;5022332;28;20240;-68
2022/03/24 09:07:18;;;;;;;39.03;25.67;;;9.40;87.20;;;;;;5017413;28;20204;-68
2022/03/24 09:09:44;;;;;;;44.73;27.37;;;9.40;85.90;;;;;;5007769;28;20251;-68
2022/03/24 09:12:10;;;;;;;36.63;26.53;;;9.70;85.50;;;;;;5021597;28;20181;-69
2022/03/24 09:14:40;;;;;;;37.13;26.70;;;9.80;85.80;;;;;;5003672;28;20228;-68
2022/03/24 09:17:07;;;;;;;41.67;26.07;;;10.10;83.30;;;;;;5017481;28;20784;-69
2022/03/24 09:19:33;;;;;;;42.13;26.90;;;10.00;83.10;;;;;;5015181;28;20237;-69
2022/03/24 09:22:00;;;;;;;37.27;23.87;;;10.10;81.80;;;;;;5010534;28;20249;-68
2022/03/24 09:24:26;;;;;;;35.30;24.57;;;10.10;81.80;;;;;;5012020;28;20266;-68
2022/03/24 09:26:52;;;;;;;37.90;24.30;;;10.30;79.70;;;;;;5008306;28;20806;-70
2022/03/24 09:29:18;;;;;;;40.67;26.20;;;10.30;80.40;;;;;;5003676;28;20642;-69
2022/03/24 09:31:44;;;;;;;37.03;22.70;;;10.50;78.50;;;;;;5020447;28;20214;-68
2022/03/24 09:34:09;;;;;;;43.53;24.17;;;10.60;78.30;;;;;;5009923;28;20580;-68
2022/03/24 09:36:35;;;;;;;31.63;22.83;;;10.80;75.80;;;;;;5015927;28;20183;-69
2022/03/24 09:39:02;;;;;;;34.93;22.13;;;10.90;73.00;;;;;;5016436;28;20205;-69
2022/03/24 09:41:29;;;;;;;37.17;23.37;;;10.70;71.20;;;;;;5012907;28;20292;-69
2022/03/24 09:43:58;;;;;;;29.60;20.23;;;10.70;72.80;;;;;;5013863;28;20233;-68
2022/03/24 09:46:25;;;;;;;26.87;20.67;;;10.80;71.10;;;;;;5017319;28;20275;-68
2022/03/24 09:48:51;;;;;;;31.80;20.67;;;11.00;68.60;;;;;;5019399;28;20204;-69
2022/03/24 09:51:17;;;;;;;37.37;21.17;;;11.10;66.80;;;;;;5021896;28;20215;-65
2022/03/24 09:53:43;;;;;;;28.13;19.80;;;11.30;67.50;;;;;;5015898;28;20286;-66
2022/03/24 09:56:08;;;;;;;30.40;20.93;;;11.40;66.00;;;;;;5018576;28;20219;-65
2022/03/24 09:58:34;;;;;;;33.57;21.20;;;11.40;66.50;;;;;;5015153;28;20268;-66
2022/03/24 10:01:01;;;;;;;29.47;19.50;;;11.40;66.40;;;;;;5015611;28;20196;-67
2022/03/24 10:03:26;;;;;;;34.07;22.67;;;11.40;65.90;;;;;;5022414;28;20614;-68
2022/03/24 10:05:58;;;;;;;32.13;20.60;;;11.50;65.10;;;;;;5016574;28;20227;-65
2022/03/24 10:08:25;;;;;;;34.23;20.93;;;11.60;66.00;;;;;;5024638;28;20219;-68
2022/03/24 10:10:57;;;;;;;30.13;19.73;;;11.80;63.40;;;;;;5022099;28;20555;-64
2022/03/24 10:13:41;;;;;;;33.17;19.53;;;11.80;65.70;;;;;;5022086;28;20207;-69
2022/03/24 10:16:08;;;;;;;28.70;20.03;;;11.80;65.20;;;;;;5016272;28;20227;-64
2022/03/24 10:18:33;;;;;;;25.53;18.33;;;12.10;64.50;;;;;;4999954;28;20529;-64
2022/03/24 10:21:01;;;;;;;29.83;18.53;;;12.50;61.50;;;;;;5014681;28;20252;-65
2022/03/24 10:23:31;;;;;;;29.60;20.83;;;12.60;60.70;;;;;;5017810;28;20289;-64
2022/03/24 10:26:03;;;;;;;26.53;18.63;;;12.40;61.70;;;;;;5016845;28;20253;-63
2022/03/24 10:28:29;;;;;;;26.17;17.07;;;12.50;60.90;;;;;;5020540;28;20214;-65
2022/03/24 10:30:59;;;;;;;30.40;17.27;;;12.80;60.20;;;;;;5022469;28;20223;-64
2022/03/24 10:33:40;;;;;;;31.33;18.70;;;12.80;57.70;;;;;;5015591;28;20204;-67
2022/03/24 10:36:17;;;;;;;29.67;19.67;;;12.90;61.10;;;;;;5022594;28;20649;-67
2022/03/24 10:38:45;;;;;;;30.40;18.77;;;12.80;60.10;;;;;;5020363;28;20249;-67
2022/03/24 10:41:24;;;;;;;27.43;17.73;;;13.00;59.50;;;;;;5016589;28;20590;-66
2022/03/24 10:43:53;;;;;;;23.97;15.60;;;13.30;58.70;;;;;;5019145;28;20230;-66
2022/03/24 10:46:27;;;;;;;24.60;15.63;;;13.50;58.40;;;;;;5021761;28;20564;-66
2022/03/24 10:48:53;;;;;;;23.87;16.43;;;13.40;54.40;;;;;;5017636;28;20204;-65
2022/03/24 10:51:26;;;;;;;23.27;14.93;;;13.50;53.50;;;;;;5017506;28;20208;-67
2022/03/24 10:53:54;;;;;;;22.27;14.97;;;13.60;54.70;;;;;;5022086;28;20218;-64
2022/03/24 10:56:28;;;;;;;25.73;16.10;;;13.80;53.80;;;;;;5016461;28;20184;-67
2022/03/24 10:59:02;;;;;;;24.60;17.10;;;13.90;55.00;;;;;;5006571;28;20208;-66
2022/03/24 11:01:29;;;;;;;28.27;19.17;;;14.20;53.70;;;;;;5006769;28;20594;-66
2022/03/24 11:03:55;;;;;;;24.60;14.63;;;14.40;53.00;;;;;;5013805;28;20187;-66
2022/03/24 11:06:24;;;;;;;22.90;16.33;;;14.60;51.10;;;;;;5011517;28;20192;-66
2022/03/24 11:08:59;;;;;;;19.83;14.50;;;14.70;51.80;;;;;;5011021;28;20199;-66
2022/03/24 11:11:25;;;;;;;25.30;17.13;;;14.80;51.10;;;;;;5012046;28;20305;-68
2022/03/24 11:13:58;;;;;;;20.60;13.60;;;14.80;49.10;;;;;;5008948;28;20259;-65
2022/03/24 11:16:29;;;;;;;23.03;15.50;;;15.00;49.30;;;;;;5012179;28;20196;-65
2022/03/24 11:18:57;;;;;;;17.67;13.00;;;15.10;50.10;;;;;;5014949;28;20675;-65
2022/03/24 11:21:33;;;;;;;19.43;13.57;;;15.20;46.70;;;;;;5010718;28;20232;-65
2022/03/24 11:23:58;;;;;;;18.13;12.77;;;15.40;47.00;;;;;;5014295;28;20195;-66
2022/03/24 11:26:25;;;;;;;19.80;13.63;;;15.50;47.40;;;;;;5014040;28;20270;-65
2022/03/24 11:28:53;;;;;;;16.63;11.30;;;15.50;45.40;;;;;;5011150;28;20216;-65
2022/03/24 11:31:19;;;;;;;16.67;12.57;;;15.60;45.00;;;;;;5008359;28;20671;-67
2022/03/24 11:33:54;;;;;;;19.67;13.30;;;15.70;44.60;;;;;;5017652;28;20214;-65
2022/03/24 11:36:21;;;;;;;19.33;13.40;;;15.90;43.80;;;;;;5013424;28;20816;-66
2022/03/24 11:38:49;;;;;;;18.30;12.43;;;16.00;44.80;;;;;;5023521;28;20270;-68
2022/03/24 11:41:20;;;;;;;21.67;15.50;;;16.20;45.60;;;;;;5016314;28;20224;-66
2022/03/24 11:43:50;;;;;;;24.57;14.83;;;16.50;46.00;;;;;;5018803;28;20177;-68
2022/03/24 11:46:32;;;;;;;27.47;16.13;;;16.60;45.00;;;;;;5020445;28;20689;-66
2022/03/24 11:49:18;;;;;;;20.40;13.33;;;16.80;44.60;;;;;;5018920;28;20207;-66
2022/03/24 11:52:10;;;;;;;21.60;12.87;;;16.90;43.00;;;;;;5013828;28;20748;-68
2022/03/24 11:54:48;;;;;;;18.43;13.67;;;17.00;43.40;;;;;;5017669;28;20224;-67
2022/03/24 11:57:36;;;;;;;20.13;13.40;;;17.00;43.80;;;;;;5016924;28;20187;-69
2022/03/24 12:00:13;;;;;;;19.30;13.53;;;17.30;42.60;;;;;;5015963;28;20661;-70
2022/03/24 12:02:44;;;;;;;17.87;12.03;;;17.40;41.40;;;;;;5017858;28;20200;-66
2022/03/24 12:05:11;;;;;;;16.33;12.17;;;17.40;40.90;;;;;;5023648;28;20756;-79
2022/03/24 12:07:37;;;;;;;21.23;13.70;;;17.50;41.00;;;;;;5017696;28;20242;-68
2022/03/24 12:10:09;;;;;;;14.87;11.20;;;17.30;63.50;;;;;;5014491;28;20218;-68
2022/03/24 12:12:36;;;;;;;19.00;12.63;;;16.20;58.50;;;;;;5018402;28;20186;-69
2022/03/24 12:15:16;;;;;;;13.43;9.87;;;15.80;61.40;;;;;;5016138;28;20200;-69
2022/03/24 12:18:05;;;;;;;19.80;13.37;;;15.30;57.90;;;;;;5015957;28;20176;-68
2022/03/24 12:20:40;;;;;;;17.93;12.93;;;15.40;64.70;;;;;;5018300;28;20184;-69
2022/03/24 12:23:06;;;;;;;16.00;11.40;;;15.20;77.90;;;;;;5017866;28;20190;-71
2022/03/24 12:25:33;;;;;;;22.90;13.10;;;15.00;58.50;;;;;;5012990;28;20227;-70
2022/03/24 12:28:03;;;;;;;15.03;11.67;;;15.00;61.60;;;;;;5019378;28;20651;-70
2022/03/24 12:31:06;;;;;;;18.17;10.90;;;15.20;53.20;;;;;;5022501;28;21363;-72
2022/03/24 12:33:37;;;;;;;19.90;12.73;;;15.50;60.20;;;;;;5015270;28;20265;-76
2022/03/24 12:36:03;;;;;;;14.47;10.37;;;15.90;50.10;;;;;;5017637;28;20243;-70
2022/03/24 12:38:33;;;;;;;16.67;12.20;;;16.20;57.50;;;;;;5018857;28;20204;-70